Time;durP1;ratioP1;P1;durP2;ratioP2;P2;SDS_P1;SDS_P2;PMS_P1;PMS_P2;Temp;Humidity;BMP_temperature;BMP_pressure;BME280_temperature;BME280_humidity;BME280_pressure;Samples;Min_cycle;Max_cycle;Signal;HPM_P1;HPM_P2
2024/03/16 00:01:56;;;;;;;90.80;33.70;;;5.70;1.00;;;;;;4438684;27;658261;-72
2024/03/16 00:04:44;;;;;;;85.20;34.50;;;5.70;93.50;;;;;;4437095;27;657857;-72
2024/03/16 00:07:31;;;;;;;147.17;51.07;;;5.60;99.90;;;;;;4454497;27;658301;-72
2024/03/16 00:10:18;;;;;;;195.27;60.47;;;5.60;1.00;;;;;;4434508;27;659001;-72
2024/03/16 00:13:06;;;;;;;251.63;76.73;;;5.60;1.00;;;;;;4455088;27;658049;-71
2024/03/16 00:15:54;;;;;;;285.30;86.30;;;5.50;1.00;;;;;;4435003;27;658038;-72
2024/03/16 00:18:41;;;;;;;181.43;58.23;;;5.60;1.00;;;;;;4455180;27;657590;-72
2024/03/16 00:21:28;;;;;;;84.37;33.87;;;5.60;1.00;;;;;;4434149;27;658032;-72
2024/03/16 00:24:16;;;;;;;257.17;74.60;;;5.60;1.00;;;;;;4459074;27;656516;-72
2024/03/16 00:27:03;;;;;;;434.07;114.53;;;5.60;1.00;;;;;;4435535;27;658332;-72
2024/03/16 00:29:50;;;;;;;253.67;79.00;;;5.50;1.00;;;;;;4456111;27;659672;-72
2024/03/16 00:32:38;;;;;;;348.70;106.07;;;5.50;1.00;;;;;;4435433;27;658254;-72
2024/03/16 00:35:26;;;;;;;356.63;116.22;;;5.50;1.00;;;;;;4453559;27;659610;-72
2024/03/16 00:38:14;;;;;;;96.63;37.47;;;5.40;1.00;;;;;;4433973;27;658393;-72
2024/03/16 00:41:02;;;;;;;133.30;46.22;;;5.50;1.00;;;;;;4455031;27;657043;-72
2024/03/16 00:43:49;;;;;;;124.77;44.17;;;5.50;1.00;;;;;;4432383;27;658590;-72
2024/03/16 00:46:36;;;;;;;144.70;51.57;;;5.50;99.90;;;;;;4454040;27;657623;-72
2024/03/16 00:49:24;;;;;;;97.47;38.23;;;5.50;99.90;;;;;;4431390;27;659319;-72
2024/03/16 00:52:11;;;;;;;71.23;29.27;;;5.40;99.90;;;;;;4458097;28;657241;-72
2024/03/16 00:54:58;;;;;;;95.03;37.97;;;5.40;1.00;;;;;;4439762;27;657755;-71
2024/03/16 00:57:46;;;;;;;109.23;44.50;;;5.40;99.90;;;;;;4455996;28;657677;-71
2024/03/16 01:00:33;;;;;;;74.53;32.73;;;5.20;1.00;;;;;;4434261;28;658654;-72
2024/03/16 01:03:20;;;;;;;100.75;40.70;;;5.20;1.00;;;;;;4456984;28;657706;-72
2024/03/16 01:06:09;;;;;;;92.28;41.35;;;5.20;1.00;;;;;;4434208;28;657759;-72
2024/03/16 01:08:56;;;;;;;114.40;42.00;;;5.20;1.00;;;;;;4456216;28;656633;-72
2024/03/16 01:11:43;;;;;;;79.23;35.27;;;5.10;1.00;;;;;;4432545;28;657938;-72
2024/03/16 01:14:31;;;;;;;81.37;37.37;;;5.10;99.90;;;;;;4455654;28;657774;-72
2024/03/16 01:17:18;;;;;;;77.20;35.33;;;5.10;99.90;;;;;;4434996;28;657892;-72
2024/03/16 01:20:07;;;;;;;73.70;31.83;;;5.10;99.90;;;;;;4460820;27;658521;-72
2024/03/16 01:22:55;;;;;;;69.30;33.13;;;5.10;1.00;;;;;;4438879;27;658921;-72
2024/03/16 01:25:43;;;;;;;83.33;33.83;;;5.10;96.20;;;;;;4452638;27;656507;-72
2024/03/16 01:28:30;;;;;;;65.93;31.13;;;5.10;1.00;;;;;;4458720;27;658996;-72
2024/03/16 01:31:18;;;;;;;55.33;25.52;;;5.00;1.00;;;;;;4443264;27;656228;-72
2024/03/16 01:34:05;;;;;;;50.10;22.80;;;5.00;99.90;;;;;;4462920;27;656294;-72
2024/03/16 01:36:53;;;;;;;42.30;21.57;;;5.00;98.50;;;;;;4442613;27;657433;-72
2024/03/16 01:39:40;;;;;;;49.70;24.63;;;5.00;1.00;;;;;;4471312;27;657870;-72
2024/03/16 01:42:28;;;;;;;56.90;27.50;;;5.00;1.00;;;;;;4440869;27;657192;-72
2024/03/16 01:45:15;;;;;;;48.00;23.20;;;4.90;1.00;;;;;;4472422;27;656724;-73
2024/03/16 01:48:03;;;;;;;41.25;20.88;;;4.80;99.90;;;;;;4439642;27;656974;-72
2024/03/16 01:50:53;;;;;;;44.17;20.70;;;4.90;99.90;;;;;;4457699;27;658845;-72
2024/03/16 01:53:41;;;;;;;50.83;23.90;;;4.90;99.90;;;;;;4438673;27;657695;-72
2024/03/16 01:56:29;;;;;;;56.73;27.70;;;4.80;99.90;;;;;;4437948;27;658596;-72
2024/03/16 01:59:16;;;;;;;64.53;32.27;;;4.80;99.90;;;;;;4458574;27;658803;-72
2024/03/16 02:02:03;;;;;;;87.50;41.40;;;4.80;99.90;;;;;;4438198;27;657490;-72
2024/03/16 02:04:51;;;;;;;70.27;32.90;;;4.80;1.00;;;;;;4457893;27;657576;-72
2024/03/16 02:07:38;;;;;;;48.90;23.27;;;4.80;99.90;;;;;;4439921;27;656741;-72
2024/03/16 02:10:25;;;;;;;48.40;23.90;;;4.80;99.90;;;;;;4461180;27;658844;-72
2024/03/16 02:13:12;;;;;;;61.27;27.03;;;4.70;99.90;;;;;;4438363;27;657314;-72
2024/03/16 02:16:01;;;;;;;50.47;24.00;;;4.70;1.00;;;;;;4458257;27;658300;-72
2024/03/16 02:18:49;;;;;;;42.83;22.30;;;4.70;1.00;;;;;;4436703;27;657236;-72
2024/03/16 02:21:36;;;;;;;51.70;22.23;;;4.70;1.00;;;;;;4459042;27;656606;-72
2024/03/16 02:24:24;;;;;;;39.40;20.90;;;4.70;99.90;;;;;;4439586;27;657102;-72
2024/03/16 02:27:11;;;;;;;59.20;27.17;;;4.60;99.90;;;;;;4458895;27;657692;-72
2024/03/16 02:29:59;;;;;;;63.75;26.45;;;4.60;99.90;;;;;;4437845;27;657969;-72
2024/03/16 02:32:46;;;;;;;51.00;24.30;;;4.60;99.90;;;;;;4456985;27;657742;-72
2024/03/16 02:35:33;;;;;;;94.17;38.03;;;4.50;1.00;;;;;;4438154;27;658918;-72
2024/03/16 02:38:21;;;;;;;86.33;36.87;;;4.60;67.70;;;;;;4461994;27;657509;-72
2024/03/16 02:41:08;;;;;;;77.53;34.00;;;4.70;1.00;;;;;;4437960;27;657724;-73
2024/03/16 02:43:55;;;;;;;64.88;28.05;;;4.60;1.00;;;;;;4457972;27;657682;-72
2024/03/16 02:46:43;;;;;;;123.07;47.72;;;4.60;1.00;;;;;;4438959;27;656462;-72
2024/03/16 02:49:30;;;;;;;112.20;45.53;;;4.60;1.00;;;;;;4457162;27;658195;-72
2024/03/16 02:52:18;;;;;;;78.57;32.83;;;4.70;41.90;;;;;;4446392;27;658223;-72
2024/03/16 02:55:05;;;;;;;93.37;40.20;;;4.60;23.90;;;;;;4465787;27;658398;-73
2024/03/16 02:57:53;;;;;;;72.40;32.43;;;4.60;82.90;;;;;;4455234;27;658047;-73
2024/03/16 03:00:41;;;;;;;82.30;36.43;;;4.60;99.90;;;;;;4477949;27;658083;-72
2024/03/16 03:03:28;;;;;;;67.03;30.60;;;4.70;99.90;;;;;;4455068;27;657703;-73
2024/03/16 03:06:16;;;;;;;60.47;26.80;;;4.70;1.00;;;;;;4473331;27;658263;-73
2024/03/16 03:09:07;;;;;;;52.37;24.40;;;4.70;1.00;;;;;;4455135;27;656059;-72
2024/03/16 03:11:54;;;;;;;51.03;23.30;;;4.70;1.00;;;;;;4457132;27;656704;-72
2024/03/16 03:14:42;;;;;;;35.88;18.75;;;4.80;1.00;;;;;;4475391;27;656895;-72
2024/03/16 03:17:29;;;;;;;41.30;20.03;;;4.80;1.00;;;;;;4456560;27;656797;-72
2024/03/16 03:20:20;;;;;;;42.13;21.17;;;4.80;99.90;;;;;;4475428;27;656478;-72
2024/03/16 03:23:08;;;;;;;48.58;23.25;;;4.90;99.90;;;;;;4455575;27;657479;-72
2024/03/16 03:25:55;;;;;;;52.03;23.10;;;4.90;99.90;;;;;;4477099;27;658368;-72
2024/03/16 03:28:43;;;;;;;51.27;22.50;;;5.00;99.90;;;;;;4454829;27;658280;-72
2024/03/16 03:31:30;;;;;;;38.70;18.30;;;5.10;99.90;;;;;;4474522;27;658429;-72
2024/03/16 03:34:18;;;;;;;37.07;18.60;;;5.20;99.90;;;;;;4462189;27;657652;-72
2024/03/16 03:37:05;;;;;;;40.80;18.33;;;5.20;99.90;;;;;;4474172;27;658188;-72
2024/03/16 03:39:53;;;;;;;32.87;16.37;;;5.30;99.90;;;;;;4454790;27;657539;-72
2024/03/16 03:42:46;;;;;;;32.17;15.50;;;5.30;1.00;;;;;;4477557;27;657960;-72
2024/03/16 03:45:49;;;;;;;28.87;15.03;;;5.40;1.00;;;;;;4432646;27;656729;-72
2024/03/16 03:48:41;;;;;;;38.78;17.80;;;5.50;1.00;;;;;;4456417;27;656834;-72
2024/03/16 03:51:28;;;;;;;32.97;15.03;;;5.50;99.90;;;;;;4433455;27;657404;-72
2024/03/16 03:54:15;;;;;;;38.50;17.27;;;5.50;99.90;;;;;;4477729;27;658158;-72
2024/03/16 03:57:03;;;;;;;61.63;24.13;;;5.60;99.90;;;;;;4454813;27;658635;-72
2024/03/16 03:59:51;;;;;;;47.27;20.67;;;5.60;99.90;;;;;;4474172;27;658634;-72
2024/03/16 04:02:38;;;;;;;32.40;16.10;;;5.60;99.90;;;;;;4453539;27;657694;-73
2024/03/16 04:05:26;;;;;;;34.00;16.33;;;5.60;99.90;;;;;;4476586;27;657768;-72
2024/03/16 04:08:14;;;;;;;37.53;16.90;;;5.60;99.90;;;;;;4452707;27;657695;-72
2024/03/16 04:11:04;;;;;;;30.50;16.20;;;5.70;99.90;;;;;;4472788;27;657822;-73
2024/03/16 04:13:51;;;;;;;33.10;15.27;;;5.60;99.90;;;;;;4453850;27;657627;-73
2024/03/16 04:16:39;;;;;;;34.57;15.97;;;5.70;99.90;;;;;;4450331;27;657417;-72
2024/03/16 04:19:26;;;;;;;36.20;16.63;;;5.70;1.00;;;;;;4473218;27;657360;-73
2024/03/16 04:22:13;;;;;;;34.23;16.43;;;5.80;1.00;;;;;;4453826;27;656231;-72
2024/03/16 04:25:03;;;;;;;31.00;15.37;;;5.80;1.00;;;;;;4473968;27;656766;-72
2024/03/16 04:27:50;;;;;;;31.90;14.63;;;5.80;1.00;;;;;;4451221;27;656649;-72
2024/03/16 04:30:38;;;;;;;32.07;16.30;;;5.80;1.00;;;;;;4454575;27;657089;-72
2024/03/16 04:33:27;;;;;;;33.40;16.07;;;5.70;1.00;;;;;;4473882;27;657836;-72
2024/03/16 04:36:14;;;;;;;35.27;15.77;;;5.70;1.00;;;;;;4454971;27;657258;-72
2024/03/16 04:39:03;;;;;;;32.03;15.73;;;5.70;99.90;;;;;;4454200;27;656862;-72
2024/03/16 04:41:51;;;;;;;30.87;14.17;;;5.70;1.00;;;;;;4473761;27;658336;-72
2024/03/16 04:44:38;;;;;;;33.43;15.07;;;5.70;99.90;;;;;;4454324;27;656382;-72
2024/03/16 04:47:25;;;;;;;32.13;15.00;;;5.80;65.50;;;;;;4475833;27;658418;-72
2024/03/16 04:50:15;;;;;;;27.17;13.23;;;5.80;99.90;;;;;;4453104;27;658425;-72
2024/03/16 04:53:03;;;;;;;30.60;14.40;;;5.80;54.50;;;;;;4469492;27;657881;-72
2024/03/16 04:55:52;;;;;;;29.67;14.47;;;5.80;47.70;;;;;;4468731;27;659142;-72
2024/03/16 04:58:39;;;;;;;29.17;14.70;;;5.80;14.90;;;;;;4432665;27;659378;-72
2024/03/16 05:01:26;;;;;;;31.07;15.03;;;5.80;67.70;;;;;;4468137;27;657811;-72
2024/03/16 05:04:14;;;;;;;36.37;16.57;;;5.80;99.90;;;;;;4430785;28;658048;-72
2024/03/16 05:07:01;;;;;;;36.60;16.27;;;5.80;99.90;;;;;;4437679;28;657512;-72
2024/03/16 05:09:48;;;;;;;35.00;15.53;;;5.80;99.90;;;;;;4417174;28;657625;-72
2024/03/16 05:12:36;;;;;;;34.73;15.80;;;5.90;1.00;;;;;;4437484;28;659044;-72
2024/03/16 05:15:23;;;;;;;39.97;18.40;;;5.90;1.00;;;;;;4419644;28;656571;-72
2024/03/16 05:18:14;;;;;;;81.17;34.80;;;5.90;1.00;;;;;;4442473;28;656703;-72
2024/03/16 05:21:01;;;;;;;89.27;40.03;;;5.90;1.00;;;;;;4416564;28;657800;-72
2024/03/16 05:23:48;;;;;;;78.50;35.15;;;6.00;1.00;;;;;;4415023;28;656953;-72
2024/03/16 05:26:36;;;;;;;57.08;27.83;;;5.90;1.00;;;;;;4438585;28;656798;-72
2024/03/16 05:29:25;;;;;;;55.07;26.40;;;6.00;1.00;;;;;;4419550;28;656744;-72
2024/03/16 05:32:13;;;;;;;32.67;16.10;;;6.00;1.00;;;;;;4427706;28;656452;-72
2024/03/16 05:35:01;;;;;;;32.40;16.30;;;6.00;99.90;;;;;;4438638;28;656980;-72
2024/03/16 05:37:50;;;;;;;31.70;16.20;;;6.10;99.90;;;;;;4418389;28;657942;-72
2024/03/16 05:40:41;;;;;;;68.80;28.47;;;6.30;99.90;;;;;;4441546;28;657590;-72
2024/03/16 05:43:28;;;;;;;45.00;22.23;;;6.40;1.00;;;;;;4418262;28;657879;-72
2024/03/16 05:46:16;;;;;;;291.83;121.63;;;6.40;1.00;;;;;;4441830;28;657134;-72
2024/03/16 05:49:03;;;;;;;145.47;60.77;;;6.50;1.00;;;;;;4417016;28;658809;-72
2024/03/16 05:51:50;;;;;;;99.32;41.67;;;6.60;1.00;;;;;;4437855;28;658389;-72
2024/03/16 05:54:38;;;;;;;61.80;29.73;;;6.70;1.00;;;;;;4420578;28;656967;-73
2024/03/16 05:57:25;;;;;;;67.80;32.80;;;6.80;1.00;;;;;;4440988;28;656408;-72
2024/03/16 06:00:14;;;;;;;42.93;20.73;;;6.80;1.00;;;;;;4419544;28;656568;-72
2024/03/16 06:03:02;;;;;;;61.30;30.10;;;6.90;1.00;;;;;;4447274;28;657010;-72
2024/03/16 06:05:49;;;;;;;74.07;34.07;;;6.90;1.00;;;;;;4438219;27;656502;-73
2024/03/16 06:08:36;;;;;;;44.60;21.03;;;7.00;1.00;;;;;;4459366;27;656820;-73
2024/03/16 06:11:24;;;;;;;124.43;43.70;;;7.10;1.00;;;;;;4440094;27;657229;-72
2024/03/16 06:14:11;;;;;;;117.03;43.23;;;7.20;1.00;;;;;;4458214;27;657645;-72
2024/03/16 06:16:58;;;;;;;88.83;35.50;;;7.30;1.00;;;;;;4438395;27;657553;-72
2024/03/16 06:19:49;;;;;;;41.53;18.37;;;7.40;1.00;;;;;;4462564;27;657421;-72
2024/03/16 06:22:37;;;;;;;60.67;26.13;;;7.60;1.00;;;;;;4435676;27;656651;-73
2024/03/16 06:25:24;;;;;;;80.83;30.50;;;7.70;63.50;;;;;;4438803;27;657078;-72
2024/03/16 06:28:11;;;;;;;32.33;16.00;;;7.80;91.00;;;;;;4455977;27;657877;-72
2024/03/16 06:31:07;;;;;;;31.77;15.88;;;7.90;1.00;;;;;;4438195;27;658179;-72
2024/03/16 06:33:55;;;;;;;35.50;17.40;;;8.00;1.00;;;;;;4418612;27;656774;-72
2024/03/16 06:36:43;;;;;;;27.98;13.82;;;8.10;1.00;;;;;;4439857;27;656834;-73
2024/03/16 06:39:30;;;;;;;31.40;16.60;;;8.10;1.00;;;;;;4458836;27;657000;-72
2024/03/16 06:42:18;;;;;;;29.73;14.23;;;8.30;1.00;;;;;;4446175;27;656971;-72
2024/03/16 06:45:06;;;;;;;37.50;18.37;;;8.40;1.00;;;;;;4458939;27;657197;-72
2024/03/16 06:47:53;;;;;;;48.43;23.90;;;8.60;99.90;;;;;;4439474;27;657351;-73
2024/03/16 06:50:40;;;;;;;32.10;15.87;;;8.70;1.00;;;;;;4457202;27;658132;-72
2024/03/16 06:53:28;;;;;;;35.47;16.83;;;8.90;1.00;;;;;;4438064;27;656589;-72
2024/03/16 06:56:15;;;;;;;39.80;20.23;;;9.00;1.00;;;;;;4471382;27;656626;-72
2024/03/16 06:59:03;;;;;;;50.73;23.33;;;9.20;99.90;;;;;;4442107;27;656590;-73
2024/03/16 07:01:50;;;;;;;46.00;22.03;;;9.30;99.90;;;;;;4470674;27;658090;-72
2024/03/16 07:04:38;;;;;;;46.60;22.30;;;9.30;99.90;;;;;;4438292;27;658042;-72
2024/03/16 07:07:25;;;;;;;45.93;22.87;;;9.50;1.00;;;;;;4457155;27;658603;-72
2024/03/16 07:10:14;;;;;;;44.07;19.73;;;9.60;1.00;;;;;;4439986;27;657040;-72
2024/03/16 07:13:02;;;;;;;43.93;21.73;;;9.80;1.00;;;;;;4471680;27;657073;-72
2024/03/16 07:15:50;;;;;;;47.47;21.17;;;9.90;1.00;;;;;;4438611;27;658093;-72
2024/03/16 07:18:37;;;;;;;54.17;25.50;;;9.90;1.00;;;;;;4457866;27;656745;-72
2024/03/16 07:21:24;;;;;;;50.23;26.77;;;9.90;1.00;;;;;;4448434;27;657587;-72
2024/03/16 07:24:12;;;;;;;44.55;21.98;;;9.90;99.90;;;;;;4458010;27;656195;-72
2024/03/16 07:26:59;;;;;;;51.40;23.50;;;9.90;99.90;;;;;;4437226;27;658113;-72
2024/03/16 07:29:46;;;;;;;49.87;24.20;;;9.90;1.00;;;;;;4456271;27;657306;-72
2024/03/16 07:32:34;;;;;;;48.33;22.80;;;9.90;1.00;;;;;;4438230;27;656995;-72
2024/03/16 07:35:21;;;;;;;43.50;17.70;;;10.00;99.90;;;;;;4457736;27;656864;-72
2024/03/16 07:38:08;;;;;;;43.33;20.80;;;9.90;99.90;;;;;;4433925;27;658677;-72
2024/03/16 07:40:56;;;;;;;43.37;21.43;;;9.90;99.90;;;;;;4456356;27;658417;-71
2024/03/16 07:43:44;;;;;;;43.33;21.13;;;9.80;99.90;;;;;;4437486;27;657505;-71
2024/03/16 07:46:31;;;;;;;25.30;11.13;;;9.90;99.90;;;;;;4456693;27;658273;-71
2024/03/16 07:49:19;;;;;;;34.77;17.77;;;9.90;99.90;;;;;;4436944;27;657833;-72
2024/03/16 07:52:07;;;;;;;36.63;18.83;;;9.90;99.90;;;;;;4456361;27;657879;-72
2024/03/16 07:54:54;;;;;;;23.93;12.83;;;10.00;99.90;;;;;;4440119;27;658512;-71
2024/03/16 07:57:42;;;;;;;42.23;19.83;;;10.10;99.90;;;;;;4472222;27;658248;-72
2024/03/16 08:00:29;;;;;;;40.30;20.67;;;10.20;30.60;;;;;;4449448;27;659789;-72
2024/03/16 08:03:17;;;;;;;40.03;19.40;;;10.30;99.90;;;;;;4472527;27;658843;-71
2024/03/16 08:06:07;;;;;;;28.20;14.40;;;10.60;1.00;;;;;;4453302;27;658916;-71
2024/03/16 08:08:54;;;;;;;35.23;19.37;;;10.80;1.00;;;;;;4455338;27;657883;-72
2024/03/16 08:11:42;;;;;;;35.17;18.77;;;11.00;1.00;;;;;;4471540;27;657385;-72
2024/03/16 08:14:34;;;;;;;32.93;17.67;;;11.20;1.00;;;;;;4454600;27;658782;-71
2024/03/16 08:17:22;;;;;;;23.83;12.10;;;11.20;99.90;;;;;;4451420;27;657656;-72
2024/03/16 08:20:12;;;;;;;30.33;14.03;;;11.40;99.90;;;;;;4448981;27;659901;-72
2024/03/16 08:22:59;;;;;;;30.43;15.70;;;11.50;1.00;;;;;;4452973;27;658750;-72
2024/03/16 08:25:46;;;;;;;32.27;16.80;;;11.60;99.90;;;;;;4477131;27;657918;-72
2024/03/16 08:28:34;;;;;;;34.20;15.93;;;11.80;1.00;;;;;;4448485;27;659130;-72
2024/03/16 08:31:21;;;;;;;38.93;18.20;;;11.90;99.90;;;;;;4473168;27;657648;-72
2024/03/16 08:34:09;;;;;;;27.53;12.80;;;11.90;99.90;;;;;;4452446;27;659043;-72
2024/03/16 08:36:56;;;;;;;23.63;10.43;;;11.60;99.90;;;;;;4471984;27;658559;-71
2024/03/16 08:39:44;;;;;;;34.77;17.30;;;11.40;99.90;;;;;;4451908;27;658420;-71
2024/03/16 08:42:31;;;;;;;25.50;10.60;;;11.30;99.90;;;;;;4472010;27;658537;-71
2024/03/16 08:45:18;;;;;;;20.67;9.60;;;11.40;99.90;;;;;;4451942;27;658608;-71
2024/03/16 08:48:06;;;;;;;21.47;9.70;;;11.50;99.90;;;;;;4475973;27;658901;-71
2024/03/16 08:50:53;;;;;;;35.43;19.10;;;11.60;99.90;;;;;;4452799;27;657800;-72
2024/03/16 08:53:41;;;;;;;29.47;15.43;;;11.80;1.00;;;;;;4473765;27;658767;-72
2024/03/16 08:56:30;;;;;;;15.70;7.63;;;12.20;99.90;;;;;;4435794;27;657612;-72
2024/03/16 08:59:18;;;;;;;21.23;9.77;;;12.20;99.90;;;;;;4436850;28;657767;-72
2024/03/16 09:02:05;;;;;;;24.37;14.07;;;12.30;99.90;;;;;;4454773;28;657616;-72
2024/03/16 09:04:55;;;;;;;20.13;11.43;;;12.60;99.90;;;;;;4434128;28;658985;-72
2024/03/16 09:07:42;;;;;;;17.27;9.93;;;12.70;99.90;;;;;;4435323;28;659266;-72
2024/03/16 09:10:30;;;;;;;17.87;9.77;;;12.90;99.90;;;;;;4455204;28;658640;-72
2024/03/16 09:13:18;;;;;;;17.50;9.77;;;12.80;99.90;;;;;;4449429;28;657895;-72
2024/03/16 09:16:06;;;;;;;18.70;10.57;;;12.80;99.90;;;;;;4454872;28;658966;-71
2024/03/16 09:18:53;;;;;;;20.40;10.70;;;12.80;96.40;;;;;;4434178;28;659443;-72
2024/03/16 09:21:40;;;;;;;13.10;6.87;;;12.70;99.90;;;;;;4454335;28;659476;-71
2024/03/16 09:24:28;;;;;;;13.10;6.43;;;12.80;99.90;;;;;;4434504;28;658037;-71
2024/03/16 09:27:15;;;;;;;11.83;5.20;;;13.10;98.20;;;;;;4454600;28;657777;-71
2024/03/16 09:30:05;;;;;;;15.93;6.33;;;13.10;74.50;;;;;;4440168;28;657332;-71
2024/03/16 09:32:52;;;;;;;21.63;10.97;;;13.00;99.90;;;;;;4448038;28;657662;-71
2024/03/16 09:35:41;;;;;;;19.83;11.40;;;12.80;99.90;;;;;;4452863;28;659621;-71
2024/03/16 09:38:29;;;;;;;19.90;11.00;;;12.80;99.90;;;;;;4433797;28;660470;-71
2024/03/16 09:41:17;;;;;;;19.33;9.03;;;12.90;99.90;;;;;;4456486;27;658881;-71
2024/03/16 09:44:04;;;;;;;18.90;11.37;;;12.90;99.90;;;;;;4439505;27;658154;-72
2024/03/16 09:46:51;;;;;;;12.30;6.47;;;12.90;99.90;;;;;;4460493;27;659074;-71
2024/03/16 09:49:38;;;;;;;20.87;11.70;;;12.90;99.90;;;;;;4438781;27;657645;-72
2024/03/16 09:52:26;;;;;;;24.00;11.03;;;13.10;99.90;;;;;;4456043;27;659293;-71
2024/03/16 09:55:14;;;;;;;18.73;10.85;;;13.40;88.70;;;;;;4442906;27;659133;-72
2024/03/16 09:58:01;;;;;;;17.23;10.10;;;13.50;99.90;;;;;;4460966;27;659998;-72
2024/03/16 10:00:48;;;;;;;22.57;11.10;;;13.80;16.30;;;;;;4437361;27;658419;-72
2024/03/16 10:03:36;;;;;;;19.10;10.77;;;13.90;29.40;;;;;;4442472;28;659273;-71
2024/03/16 10:06:23;;;;;;;18.93;11.37;;;13.80;1.00;;;;;;4419504;28;658788;-71
2024/03/16 10:09:12;;;;;;;14.73;7.93;;;13.40;2.10;;;;;;4439492;28;658520;-72
2024/03/16 10:12:11;;;;;;;12.13;5.37;;;13.60;1.00;;;;;;4422527;28;657451;-72
2024/03/16 10:15:09;;;;;;;15.23;7.50;;;13.80;17.60;;;;;;4395825;28;657557;-71
2024/03/16 10:17:58;;;;;;;20.93;8.60;;;13.80;1.00;;;;;;4417760;28;658025;-70
2024/03/16 10:20:45;;;;;;;21.60;8.20;;;13.90;99.90;;;;;;4417668;28;657348;-71
2024/03/16 10:23:33;;;;;;;7.93;4.27;;;13.80;1.00;;;;;;4420466;28;657923;-71
2024/03/16 10:26:20;;;;;;;6.90;4.20;;;13.50;1.00;;;;;;4441999;28;657020;-71
2024/03/16 10:29:08;;;;;;;14.03;8.37;;;13.70;99.90;;;;;;4431745;28;655639;-72
2024/03/16 10:31:56;;;;;;;10.60;4.97;;;14.30;56.10;;;;;;4443637;28;657896;-71
2024/03/16 10:34:43;;;;;;;18.23;8.73;;;14.40;1.00;;;;;;4420463;28;657373;-71
2024/03/16 10:37:32;;;;;;;7.63;2.87;;;14.40;38.40;;;;;;4444006;28;657295;-71
2024/03/16 10:40:19;;;;;;;9.70;6.30;;;14.30;1.00;;;;;;4418299;28;657430;-71
2024/03/16 10:43:08;;;;;;;9.67;5.17;;;14.30;1.00;;;;;;4441831;28;655561;-71
2024/03/16 10:45:56;;;;;;;11.00;4.83;;;13.90;1.00;;;;;;4418722;28;656672;-71
2024/03/16 10:48:44;;;;;;;13.83;6.03;;;14.10;1.00;;;;;;4418841;28;657032;-71
2024/03/16 10:51:31;;;;;;;10.57;6.60;;;14.50;1.00;;;;;;4440088;28;656535;-71
2024/03/16 10:54:19;;;;;;;5.60;3.17;;;14.50;1.00;;;;;;4424328;27;656573;-71
2024/03/16 10:57:07;;;;;;;10.13;5.57;;;14.60;1.00;;;;;;4459807;27;655765;-71
2024/03/16 10:59:54;;;;;;;5.93;3.30;;;14.40;1.00;;;;;;4439118;27;657393;-71
2024/03/16 11:02:49;;;;;;;10.53;6.10;;;14.60;1.00;;;;;;4459213;27;656223;-70
2024/03/16 11:05:36;;;;;;;9.83;5.70;;;14.80;1.00;;;;;;4434069;27;656850;-70
2024/03/16 11:08:26;;;;;;;11.57;4.50;;;14.70;1.00;;;;;;4439741;27;655158;-71
2024/03/16 11:11:16;;;;;;;10.00;5.70;;;14.70;1.00;;;;;;4438636;27;656680;-71
2024/03/16 11:14:05;;;;;;;4.43;2.37;;;14.80;1.00;;;;;;4438437;27;656806;-70
2024/03/16 11:16:53;;;;;;;4.47;2.37;;;14.60;1.00;;;;;;4457691;27;655346;-71
2024/03/16 11:19:40;;;;;;;8.53;3.97;;;14.60;1.00;;;;;;4458126;27;656436;-70
2024/03/16 11:22:28;;;;;;;12.67;6.83;;;15.00;1.00;;;;;;4439812;27;656497;-71
2024/03/16 11:25:19;;;;;;;5.00;3.57;;;14.90;1.00;;;;;;4457945;27;657757;-70
2024/03/16 11:28:07;;;;;;;8.37;4.63;;;15.40;1.00;;;;;;4436203;27;655923;-71
2024/03/16 11:30:54;;;;;;;10.03;6.30;;;15.40;1.00;;;;;;4438949;27;656312;-71
2024/03/16 11:33:40;;;;;;;9.70;3.47;;;15.20;1.00;;;;;;4456782;27;656305;-71
2024/03/16 11:36:29;;;;;;;13.00;6.53;;;15.30;1.00;;;;;;4439131;27;655362;-71
2024/03/16 11:39:20;;;;;;;6.83;2.90;;;15.00;1.00;;;;;;4457994;27;656873;-70
2024/03/16 11:42:15;;;;;;;9.57;4.80;;;14.80;1.00;;;;;;4413817;27;655941;-70
2024/03/16 11:45:02;;;;;;;15.43;5.73;;;14.60;1.00;;;;;;4437097;27;655977;-71
2024/03/16 11:47:49;;;;;;;12.00;5.95;;;15.30;1.00;;;;;;4438518;27;657122;-70
2024/03/16 11:50:36;;;;;;;11.70;7.07;;;15.30;1.00;;;;;;4457065;27;657041;-70
2024/03/16 11:53:22;;;;;;;10.13;6.23;;;15.20;1.00;;;;;;4435561;27;657141;-71
2024/03/16 11:56:10;;;;;;;12.30;6.30;;;15.10;1.00;;;;;;4456807;28;656582;-71
2024/03/16 11:58:57;;;;;;;10.30;6.53;;;15.40;1.00;;;;;;4439217;28;656456;-70
2024/03/16 12:01:44;;;;;;;8.33;3.93;;;15.30;1.00;;;;;;4456642;28;656996;-70
2024/03/16 12:04:30;;;;;;;5.97;3.07;;;14.70;1.00;;;;;;4444435;28;655080;-70
2024/03/16 12:07:18;;;;;;;11.97;6.00;;;14.60;1.00;;;;;;4421433;28;655790;-70
2024/03/16 12:10:08;;;;;;;11.40;6.80;;;14.80;1.00;;;;;;4439674;28;657960;-71
2024/03/16 12:12:55;;;;;;;6.73;3.80;;;15.40;1.00;;;;;;4417216;28;657199;-70
2024/03/16 12:15:42;;;;;;;9.87;5.90;;;15.40;1.00;;;;;;4421782;28;655865;-71
2024/03/16 12:18:31;;;;;;;5.03;3.30;;;15.40;1.00;;;;;;4444338;28;656216;-71
2024/03/16 12:21:17;;;;;;;6.27;3.70;;;16.00;1.00;;;;;;4421900;28;655489;-71
2024/03/16 12:24:05;;;;;;;10.43;4.40;;;16.60;1.00;;;;;;4441881;28;655536;-71
2024/03/16 12:26:51;;;;;;;10.90;6.03;;;17.10;1.00;;;;;;4443055;28;656532;-71
2024/03/16 12:29:38;;;;;;;12.40;5.90;;;16.40;1.00;;;;;;4419834;28;656515;-71
2024/03/16 12:32:27;;;;;;;7.93;4.03;;;16.50;1.00;;;;;;4438890;28;656604;-71
2024/03/16 12:35:13;;;;;;;8.87;5.47;;;16.30;1.00;;;;;;4421851;28;655663;-71
2024/03/16 12:38:00;;;;;;;8.33;5.50;;;16.10;1.00;;;;;;4443309;28;656563;-70
2024/03/16 12:40:48;;;;;;;11.13;4.40;;;16.00;1.00;;;;;;4420376;28;656140;-70
2024/03/16 12:43:34;;;;;;;7.57;3.93;;;15.70;1.00;;;;;;4443094;28;656963;-70
2024/03/16 12:46:21;;;;;;;10.47;4.37;;;15.50;1.00;;;;;;4439580;28;655286;-70
2024/03/16 12:49:08;;;;;;;7.10;4.07;;;15.40;1.00;;;;;;4415975;28;657056;-70
2024/03/16 12:51:55;;;;;;;6.67;3.30;;;15.30;1.00;;;;;;4440007;28;656521;-70
2024/03/16 12:54:42;;;;;;;5.07;3.47;;;15.40;1.00;;;;;;4426545;28;655920;-71
2024/03/16 12:57:31;;;;;;;6.87;3.50;;;15.60;1.00;;;;;;4444139;28;656326;-71
2024/03/16 13:00:19;;;;;;;10.00;4.00;;;16.00;1.00;;;;;;4421462;28;655714;-71
2024/03/16 13:03:06;;;;;;;5.80;3.83;;;15.40;1.00;;;;;;4438668;28;656252;-71
2024/03/16 13:05:53;;;;;;;4.33;2.17;;;15.30;1.00;;;;;;4420719;28;656303;-72
2024/03/16 13:08:39;;;;;;;9.57;4.53;;;15.80;1.00;;;;;;4443844;28;656436;-71
2024/03/16 13:11:27;;;;;;;6.27;3.77;;;15.70;1.00;;;;;;4444466;28;655510;-71
2024/03/16 13:14:13;;;;;;;4.50;2.63;;;15.60;1.00;;;;;;4421054;28;655444;-71
2024/03/16 13:17:00;;;;;;;7.80;3.87;;;15.40;1.00;;;;;;4444470;28;656250;-71
2024/03/16 13:19:47;;;;;;;11.10;4.60;;;15.20;1.00;;;;;;4424349;28;655855;-71
2024/03/16 13:22:34;;;;;;;5.27;3.63;;;15.30;1.00;;;;;;4444326;28;656101;-71
2024/03/16 13:25:22;;;;;;;6.30;3.87;;;15.40;1.00;;;;;;4443851;28;656575;-71
2024/03/16 13:28:08;;;;;;;6.53;3.77;;;15.10;1.00;;;;;;4420479;28;656485;-70
2024/03/16 13:30:55;;;;;;;5.13;2.87;;;14.90;1.00;;;;;;4444136;28;656237;-71
2024/03/16 13:33:42;;;;;;;6.13;3.50;;;14.70;1.00;;;;;;4424570;28;655734;-71
2024/03/16 13:36:30;;;;;;;7.33;3.90;;;14.70;1.00;;;;;;4447408;28;655403;-71
2024/03/16 13:39:17;;;;;;;8.13;4.73;;;14.70;1.00;;;;;;4424727;28;655759;-71
2024/03/16 13:42:06;;;;;;;7.77;5.10;;;14.70;1.00;;;;;;4447419;28;655780;-71
2024/03/16 13:44:52;;;;;;;4.67;2.47;;;14.90;1.00;;;;;;4424550;28;655381;-71
2024/03/16 13:47:39;;;;;;;10.05;5.30;;;15.00;1.00;;;;;;4443739;28;655375;-71
2024/03/16 13:50:26;;;;;;;9.10;4.80;;;14.90;1.00;;;;;;4442222;28;656565;-71
2024/03/16 13:53:13;;;;;;;10.37;4.23;;;15.50;1.00;;;;;;4423495;28;655495;-72
2024/03/16 13:56:01;;;;;;;6.93;3.90;;;15.90;1.00;;;;;;4454252;28;656714;-71
2024/03/16 13:58:48;;;;;;;6.23;3.67;;;15.80;1.00;;;;;;4423526;28;655810;-72
2024/03/16 14:01:35;;;;;;;7.60;4.03;;;15.80;1.00;;;;;;4444472;28;655643;-71
2024/03/16 14:04:22;;;;;;;6.47;3.60;;;15.70;1.00;;;;;;4441421;27;655449;-71
2024/03/16 14:07:09;;;;;;;8.90;3.30;;;15.50;1.00;;;;;;4463934;27;655918;-71
2024/03/16 14:09:55;;;;;;;7.27;3.77;;;15.20;1.00;;;;;;4460084;27;656071;-71
2024/03/16 14:12:45;;;;;;;6.47;3.47;;;15.10;1.00;;;;;;4440978;27;656094;-71
2024/03/16 14:15:32;;;;;;;10.33;4.17;;;14.90;1.00;;;;;;4451378;27;655619;-71
2024/03/16 14:18:20;;;;;;;10.37;4.37;;;14.60;1.00;;;;;;4473078;27;658556;-71